createdAt,value
2018-04-10T00:01:47.794Z,37.07
2018-04-10T00:04:15.250Z,37.10
2018-04-10T00:06:42.675Z,37.63
2018-04-10T00:09:10.096Z,38.00
2018-04-10T00:11:38.463Z,38.40
2018-04-10T00:14:05.896Z,39.00
2018-04-10T00:16:33.404Z,38.60
2018-04-10T00:19:00.827Z,38.50
2018-04-10T00:21:29.060Z,37.73
2018-04-10T00:23:56.506Z,37.23
2018-04-10T00:26:23.904Z,37.07
2018-04-10T00:28:51.331Z,36.50
2018-04-10T00:31:19.500Z,36.73
2018-04-10T00:33:47.015Z,36.13
2018-04-10T00:36:15.333Z,35.87
2018-04-10T00:38:42.772Z,35.20
2018-04-10T00:41:10.194Z,35.23
2018-04-10T00:43:37.630Z,34.03
2018-04-10T00:46:05.028Z,34.90
2018-04-10T00:48:33.993Z,33.40
2018-04-10T00:51:01.457Z,32.90
2018-04-10T00:53:37.540Z,33.43
2018-04-10T00:56:04.963Z,33.73
2018-04-10T00:58:33.155Z,33.43
2018-04-10T01:01:00.592Z,33.20
2018-04-10T01:03:29.516Z,34.00
2018-04-10T01:05:57.700Z,31.60
2018-04-10T01:08:25.922Z,32.73
2018-04-10T01:10:53.344Z,31.73
2018-04-10T01:13:20.784Z,32.10
2018-04-10T01:15:48.193Z,32.20
2018-04-10T01:18:16.383Z,31.00
2018-04-10T01:20:44.608Z,32.10
2018-04-10T01:23:12.065Z,30.50
2018-04-10T01:25:40.346Z,31.65
2018-04-10T01:28:07.831Z,30.60
2018-04-10T01:30:35.229Z,30.83
2018-04-10T01:33:02.655Z,31.73
2018-04-10T01:35:30.112Z,31.07
2018-04-10T01:37:57.558Z,31.13
2018-04-10T01:40:24.991Z,31.03
2018-04-10T01:42:52.439Z,30.60
2018-04-10T01:45:19.931Z,30.20
2018-04-10T01:47:47.347Z,30.67
2018-04-10T01:50:15.574Z,31.83
2018-04-10T01:52:42.984Z,33.53
2018-04-10T01:55:10.502Z,31.03
2018-04-10T01:57:37.941Z,32.10
2018-04-10T02:00:05.381Z,32.10
2018-04-10T02:02:32.942Z,32.00
2018-04-10T02:05:00.347Z,32.63
2018-04-10T02:07:27.764Z,31.87
2018-04-10T02:09:55.179Z,30.83
2018-04-10T02:12:23.395Z,31.87
2018-04-10T02:14:50.819Z,31.20
2018-04-10T02:17:18.248Z,30.10
2018-04-10T02:19:45.656Z,30.10
2018-04-10T02:22:13.853Z,31.97
2018-04-10T02:24:41.288Z,31.53
2018-04-10T02:27:08.720Z,30.80
2018-04-10T02:29:36.149Z,30.67
2018-04-10T02:32:03.568Z,30.30
2018-04-10T02:34:31.040Z,30.87
2018-04-10T02:36:58.484Z,31.47
2018-04-10T02:39:25.961Z,30.63
2018-04-10T02:41:53.394Z,30.70
2018-04-10T02:44:20.921Z,30.50
2018-04-10T02:46:48.339Z,31.80
2018-04-10T02:49:16.532Z,29.50
2018-04-10T02:51:44.724Z,29.87
2018-04-10T02:54:12.205Z,30.70
2018-04-10T02:56:39.627Z,30.03
2018-04-10T02:59:07.044Z,29.30
2018-04-10T03:01:34.488Z,30.30
2018-04-10T03:04:02.692Z,29.73
2018-04-10T03:06:30.144Z,30.57
2018-04-10T03:08:58.348Z,30.50
2018-04-10T03:11:25.771Z,30.53
2018-04-10T03:13:53.200Z,30.80
2018-04-10T03:16:20.652Z,29.40
2018-04-10T03:18:48.844Z,29.50
2018-04-10T03:21:16.281Z,30.13
2018-04-10T03:23:44.480Z,29.90
2018-04-10T03:26:12.672Z,30.37
2018-04-10T03:28:41.780Z,29.40
2018-04-10T03:31:09.216Z,29.13
2018-04-10T03:33:36.652Z,29.40
2018-04-10T03:36:04.100Z,30.00
2018-04-10T03:38:32.292Z,29.37
2018-04-10T03:40:59.725Z,29.73
2018-04-10T03:43:27.916Z,30.57
2018-04-10T03:45:56.109Z,30.60
2018-04-10T03:48:24.288Z,30.60
2018-04-10T03:50:52.492Z,30.00
2018-04-10T03:53:20.768Z,29.10
2018-04-10T03:55:48.995Z,31.60
2018-04-10T03:58:16.394Z,29.93
2018-04-10T04:00:43.820Z,29.27
2018-04-10T04:03:12.179Z,30.17
2018-04-10T04:05:40.359Z,30.13
2018-04-10T04:08:08.553Z,30.10
2018-04-10T04:10:36.747Z,30.33
2018-04-10T04:13:04.167Z,29.53
2018-04-10T04:15:31.710Z,29.30
2018-04-10T04:17:59.146Z,30.23
2018-04-10T04:20:39.040Z,29.83
2018-04-10T04:23:06.486Z,30.13
2018-04-10T04:25:33.918Z,30.10
2018-04-10T04:28:01.360Z,29.63
2018-04-10T04:30:28.764Z,31.27
2018-04-10T04:32:56.188Z,30.30
2018-04-10T04:35:23.738Z,30.30
2018-04-10T04:37:51.956Z,29.30
2018-04-10T04:40:19.382Z,33.40
2018-04-10T04:42:46.823Z,30.53
2018-04-10T04:45:14.252Z,30.07
2018-04-10T04:47:41.684Z,31.67
2018-04-10T04:50:09.104Z,30.50
2018-04-10T04:52:36.561Z,29.07
2018-04-10T04:55:03.983Z,30.13
2018-04-10T04:57:31.423Z,31.00
2018-04-10T04:59:58.843Z,31.50
2018-04-10T05:02:26.298Z,29.77
2018-04-10T05:04:53.716Z,29.73
2018-04-10T05:07:21.163Z,29.73
2018-04-10T05:09:48.577Z,29.33
2018-04-10T05:12:16.014Z,30.30
2018-04-10T05:14:44.462Z,30.67
2018-04-10T05:17:13.572Z,30.53
2018-04-10T05:19:41.051Z,31.13
2018-04-10T05:22:08.482Z,30.70
2018-04-10T05:24:35.912Z,31.70
2018-04-10T05:27:03.348Z,30.97
2018-04-10T05:29:31.519Z,30.73
2018-04-10T05:31:59.753Z,30.97
2018-04-10T05:34:27.228Z,30.00
2018-04-10T05:36:54.649Z,30.70
2018-04-10T05:39:22.841Z,30.60
2018-04-10T05:41:51.047Z,29.87
2018-04-10T05:44:18.533Z,31.07
2018-04-10T05:46:45.989Z,31.33
2018-04-10T05:49:14.219Z,30.23
2018-04-10T05:51:41.628Z,31.77
2018-04-10T05:54:09.069Z,30.60
2018-04-10T05:56:36.499Z,31.60
2018-04-10T05:59:03.924Z,30.13
2018-04-10T06:01:32.109Z,30.97
2018-04-10T06:04:00.329Z,31.50
2018-04-10T06:06:27.856Z,31.40
2018-04-10T06:08:55.289Z,31.25
2018-04-10T06:11:22.756Z,31.93
2018-04-10T06:13:50.208Z,32.40
2018-04-10T06:16:17.705Z,32.80
2018-04-10T06:18:45.141Z,31.47
2018-04-10T06:21:12.610Z,33.80
2018-04-10T06:23:40.078Z,32.77
2018-04-10T06:26:07.548Z,32.90
2018-04-10T06:28:34.988Z,32.07
2018-04-10T06:31:03.170Z,30.97
2018-04-10T06:33:30.612Z,32.73
2018-04-10T06:35:58.036Z,31.33
2018-04-10T06:38:25.457Z,32.63
2018-04-10T06:40:52.975Z,35.50
2018-04-10T06:43:20.372Z,34.20
2018-04-10T06:45:47.836Z,33.03
2018-04-10T06:48:16.272Z,33.95
2018-04-10T06:50:45.506Z,33.63
2018-04-10T06:53:13.756Z,33.97
2018-04-10T06:55:41.272Z,35.87
2018-04-10T06:58:08.700Z,33.27
2018-04-10T07:00:36.941Z,35.30
2018-04-10T07:03:04.375Z,34.97
2018-04-10T07:05:31.885Z,35.90
2018-04-10T07:07:59.360Z,34.80
2018-04-10T07:10:26.755Z,36.60
2018-04-10T07:12:54.225Z,34.30
2018-04-10T07:15:21.772Z,35.23
2018-04-10T07:17:49.197Z,35.03
2018-04-10T07:20:16.603Z,35.07
2018-04-10T07:22:44.024Z,32.33
2018-04-10T07:25:11.447Z,32.70
2018-04-10T07:27:39.660Z,31.60
2018-04-10T07:30:07.868Z,33.80
2018-04-10T07:32:36.062Z,34.50
2018-04-10T07:35:03.551Z,34.40
2018-04-10T07:37:30.967Z,33.87
2018-04-10T07:39:59.296Z,35.33
2018-04-10T07:42:26.768Z,34.70
2018-04-10T07:44:54.216Z,34.73
2018-04-10T07:47:22.420Z,36.50
2018-04-10T07:49:49.850Z,33.93
2018-04-10T07:52:17.268Z,35.17
2018-04-10T07:54:44.716Z,34.27
2018-04-10T07:57:12.147Z,36.90
2018-04-10T07:59:39.609Z,34.73
2018-04-10T08:02:07.042Z,35.00
2018-04-10T08:04:34.480Z,34.73
2018-04-10T08:07:01.941Z,35.97
2018-04-10T08:09:30.168Z,35.63
2018-04-10T08:11:57.592Z,36.37
2018-04-10T08:14:25.833Z,35.43
2018-04-10T08:16:53.291Z,36.17
2018-04-10T08:19:20.753Z,37.97
2018-04-10T08:21:48.181Z,36.90
2018-04-10T08:24:15.612Z,36.23
2018-04-10T08:26:43.072Z,37.80
2018-04-10T08:29:10.505Z,38.70
2018-04-10T08:31:38.606Z,37.00
2018-04-10T08:34:06.065Z,35.30
2018-04-10T08:36:33.508Z,35.60
2018-04-10T08:39:01.699Z,36.60
2018-04-10T08:41:29.949Z,39.70
2018-04-10T08:43:57.366Z,37.53
2018-04-10T08:46:25.599Z,37.77
2018-04-10T08:48:53.042Z,37.00
2018-04-10T08:51:20.453Z,35.50
2018-04-10T08:53:48.063Z,36.60
2018-04-10T08:56:16.370Z,37.00
2018-04-10T08:58:44.580Z,37.97
2018-04-10T09:01:12.024Z,36.50
2018-04-10T09:03:39.518Z,35.30
2018-04-10T09:06:06.943Z,37.40
2018-04-10T09:08:35.152Z,36.73
2018-04-10T09:11:02.595Z,36.40
2018-04-10T09:13:30.795Z,35.97
2018-04-10T09:15:58.212Z,37.17
2018-04-10T09:18:25.644Z,38.90
2018-04-10T09:20:53.079Z,37.83
2018-04-10T09:23:20.488Z,35.57
2018-04-10T09:25:48.339Z,36.03
2018-04-10T09:28:19.117Z,36.33
2018-04-10T09:30:46.541Z,36.30
2018-04-10T09:33:13.964Z,35.70
2018-04-10T09:35:41.384Z,36.60
2018-04-10T09:38:09.608Z,36.07
2018-04-10T09:40:37.072Z,35.90
2018-04-10T09:43:04.489Z,37.17
2018-04-10T09:45:32.709Z,36.60
2018-04-10T09:48:00.147Z,37.97
2018-04-10T09:50:27.756Z,36.47
2018-04-10T09:52:55.327Z,38.23
2018-04-10T09:55:23.495Z,35.97
2018-04-10T09:57:51.714Z,37.27
2018-04-10T10:00:24.935Z,37.07
2018-04-10T10:02:52.341Z,35.80
2018-04-10T10:05:20.666Z,35.47
2018-04-10T10:07:49.808Z,35.90
2018-04-10T10:10:17.245Z,36.70
2018-04-10T10:12:44.702Z,36.00
2018-04-10T10:15:12.904Z,38.80
2018-04-10T10:17:40.338Z,36.50
2018-04-10T10:20:08.554Z,36.70
2018-04-10T10:22:36.011Z,36.20
2018-04-10T10:25:04.319Z,37.37
2018-04-10T10:27:31.892Z,36.10
2018-04-10T10:29:59.319Z,35.53
2018-04-10T10:32:27.561Z,37.67
2018-04-10T10:34:55.110Z,37.45
2018-04-10T10:37:22.621Z,37.43
2018-04-10T10:39:50.057Z,36.40
2018-04-10T10:42:17.618Z,36.47
2018-04-10T10:44:45.048Z,35.73
2018-04-10T10:47:13.260Z,35.80
2018-04-10T10:49:40.736Z,35.23
2018-04-10T10:52:08.181Z,43.63
2018-04-10T10:54:36.370Z,33.57
2018-04-10T10:57:04.624Z,33.00
2018-04-10T10:59:32.049Z,32.50
2018-04-10T11:01:59.473Z,34.27
2018-04-10T11:04:26.955Z,34.40
2018-04-10T11:06:55.409Z,34.20
2018-04-10T11:09:22.861Z,31.10
2018-04-10T11:14:26.644Z,31.83
2018-04-10T11:16:54.076Z,32.63
2018-04-10T11:19:21.509Z,37.63
2018-04-10T11:21:50.643Z,32.33
2018-04-10T11:24:18.071Z,33.80
2018-04-10T11:26:46.285Z,31.73
2018-04-10T11:29:13.737Z,31.80
2018-04-10T11:31:42.092Z,31.77
2018-04-10T11:34:09.499Z,31.23
2018-04-10T11:36:37.702Z,31.52
2018-04-10T11:39:05.846Z,32.73
2018-04-10T11:41:33.320Z,31.20
2018-04-10T11:44:00.746Z,32.97
2018-04-10T11:46:28.164Z,33.20
2018-04-10T11:48:56.362Z,33.47
2018-04-10T11:51:24.569Z,32.67
2018-04-10T11:53:52.025Z,32.97
2018-04-10T11:56:21.138Z,33.60
2018-04-10T11:58:49.320Z,31.50
2018-04-10T12:01:16.935Z,32.40
2018-04-10T12:03:44.386Z,33.43
2018-04-10T12:06:11.812Z,31.97
2018-04-10T12:08:40.024Z,31.93
2018-04-10T12:11:08.219Z,32.23
2018-04-10T12:13:36.392Z,33.00
2018-04-10T12:16:04.029Z,32.60
2018-04-10T12:18:31.508Z,32.37
2018-04-10T12:20:58.933Z,32.27
2018-04-10T12:23:26.373Z,32.87
2018-04-10T12:25:53.848Z,30.57
2018-04-10T12:28:22.752Z,32.60
2018-04-10T12:30:52.678Z,29.57
2018-04-10T12:33:20.112Z,31.30
2018-04-10T12:35:48.356Z,29.70
2018-04-10T12:38:15.764Z,31.70
2018-04-10T12:40:43.961Z,31.80
2018-04-10T12:43:12.211Z,29.17
2018-04-10T12:45:39.756Z,29.53
2018-04-10T12:48:07.474Z,27.97
2018-04-10T12:50:34.888Z,31.40
2018-04-10T12:53:02.331Z,29.80
2018-04-10T12:55:31.185Z,29.80
2018-04-10T12:57:58.821Z,30.10
2018-04-10T13:00:26.979Z,26.37
2018-04-10T13:02:55.201Z,28.30
2018-04-10T13:05:23.425Z,29.43
2018-04-10T13:07:50.854Z,32.20
2018-04-10T13:10:18.263Z,30.10
2018-04-10T13:12:45.690Z,29.50
2018-04-10T13:15:13.120Z,29.20
2018-04-10T13:17:40.596Z,30.20
2018-04-10T13:20:07.976Z,31.43
2018-04-10T13:22:36.174Z,33.60
2018-04-10T13:25:03.623Z,32.53
2018-04-10T13:27:31.819Z,32.57
2018-04-10T13:29:59.745Z,32.83
2018-04-10T13:32:27.167Z,31.87
2018-04-10T13:34:54.584Z,30.40
2018-04-10T13:37:22.013Z,29.23
2018-04-10T13:39:49.431Z,32.30
2018-04-10T13:42:16.852Z,31.00
2018-04-10T13:44:44.290Z,30.40
2018-04-10T13:47:12.493Z,30.83
2018-04-10T13:49:40.707Z,31.70
2018-04-10T13:52:08.136Z,29.60
2018-04-10T13:54:36.344Z,30.40
2018-04-10T13:57:04.546Z,29.80
2018-04-10T13:59:32.019Z,31.27
2018-04-10T14:01:59.419Z,29.77
2018-04-10T14:04:26.867Z,31.40
2018-04-10T14:06:54.290Z,29.83
2018-04-10T14:09:22.493Z,30.83
2018-04-10T14:11:50.686Z,30.00
2018-04-10T14:14:18.271Z,31.33
2018-04-10T14:16:45.696Z,29.80
2018-04-10T14:19:13.208Z,31.83
2018-04-10T14:21:41.430Z,30.23
2018-04-10T14:24:08.847Z,31.17
2018-04-10T14:26:36.275Z,32.10
2018-04-10T14:29:03.705Z,31.80
2018-04-10T14:31:31.161Z,30.87
2018-04-10T14:33:59.356Z,32.33
2018-04-10T14:36:27.017Z,31.40
2018-04-10T14:38:54.455Z,31.90
2018-04-10T14:41:21.876Z,30.70
2018-04-10T14:43:49.319Z,31.10
2018-04-10T14:46:16.744Z,30.90
2018-04-10T14:48:44.194Z,29.90
2018-04-10T14:51:11.672Z,29.43
2018-04-10T14:53:39.100Z,28.70
2018-04-10T14:56:06.848Z,28.83
2018-04-10T14:58:34.369Z,27.50
2018-04-10T15:01:01.804Z,27.43
2018-04-10T15:03:30.009Z,26.93
2018-04-10T15:05:57.492Z,26.43
2018-04-10T15:08:24.919Z,26.67
2018-04-10T15:10:53.166Z,25.40
2018-04-10T15:13:20.605Z,26.03
2018-04-10T15:15:48.016Z,26.87
2018-04-10T15:18:15.463Z,26.77
2018-04-10T15:20:42.933Z,25.87
2018-04-10T15:23:10.333Z,27.00
2018-04-10T15:25:37.948Z,26.27
2018-04-10T15:28:06.138Z,26.93
2018-04-10T15:30:33.579Z,28.23
2018-04-10T15:33:01.800Z,24.55
2018-04-10T15:35:29.267Z,27.83
2018-04-10T15:37:56.708Z,24.43
2018-04-10T15:40:25.830Z,24.53
2018-04-10T15:42:54.950Z,23.30
2018-04-10T15:45:22.510Z,23.23
2018-04-10T15:47:49.912Z,22.73
2018-04-10T15:50:17.376Z,21.47
2018-04-10T15:52:44.801Z,22.90
2018-04-10T15:55:12.988Z,22.10
2018-04-10T15:57:40.452Z,22.62
2018-04-10T16:00:08.652Z,22.13
2018-04-10T16:02:36.086Z,22.17
2018-04-10T16:05:03.545Z,22.97
2018-04-10T16:07:31.760Z,21.30
2018-04-10T16:09:59.942Z,20.93
2018-04-10T16:12:28.170Z,21.53
2018-04-10T16:14:55.622Z,20.87
2018-04-10T16:17:23.783Z,20.60
2018-04-10T16:19:51.277Z,19.60
2018-04-10T16:22:18.706Z,20.20
2018-04-10T16:24:46.154Z,18.40
2018-04-10T16:27:13.589Z,19.80
2018-04-10T16:29:41.000Z,19.10
2018-04-10T16:32:08.441Z,19.37
2018-04-10T16:34:35.867Z,18.00
2018-04-10T16:37:03.324Z,17.90
2018-04-10T16:39:30.803Z,18.20
2018-04-10T16:41:59.006Z,17.37
2018-04-10T16:44:26.435Z,18.30
2018-04-10T16:46:54.010Z,18.27
2018-04-10T16:49:21.432Z,16.73
2018-04-10T16:51:48.847Z,16.13
2018-04-10T16:54:17.068Z,16.00
2018-04-10T16:56:44.558Z,15.73
2018-04-10T16:59:11.988Z,15.03
2018-04-10T17:01:40.160Z,16.70
2018-04-10T17:04:08.368Z,15.60
2018-04-10T17:06:36.612Z,18.47
2018-04-10T17:09:04.083Z,16.30
2018-04-10T17:11:31.532Z,14.70
2018-04-10T17:13:58.976Z,18.90
2018-04-10T17:16:26.843Z,20.70
2018-04-10T17:18:54.293Z,24.10
2018-04-10T17:21:22.468Z,25.97
2018-04-10T17:23:49.904Z,25.30
2018-04-10T17:26:17.305Z,25.57
2018-04-10T17:28:45.527Z,24.17
2018-04-10T17:31:12.932Z,25.60
2018-04-10T17:33:40.399Z,25.60
2018-04-10T17:36:07.821Z,26.20
2018-04-10T17:38:36.022Z,26.73
2018-04-10T17:41:03.462Z,25.30
2018-04-10T17:43:31.652Z,26.90
2018-04-10T17:45:59.882Z,26.90
2018-04-10T17:48:27.331Z,26.47
2018-04-10T17:50:54.735Z,27.00
2018-04-10T17:53:22.185Z,27.70
2018-04-10T17:55:49.608Z,28.77
2018-04-10T17:58:17.828Z,29.13
2018-04-10T18:00:45.253Z,28.20
2018-04-10T18:03:13.434Z,28.67
2018-04-10T18:05:41.016Z,29.00
2018-04-10T18:08:09.207Z,30.27
2018-04-10T18:10:37.411Z,31.37
2018-04-10T18:13:04.824Z,29.53
2018-04-10T18:15:32.262Z,30.77
2018-04-10T18:17:59.744Z,30.83
2018-04-10T18:20:28.304Z,30.63
2018-04-10T18:22:55.773Z,30.20
2018-04-10T18:27:50.480Z,30.70
2018-04-10T18:30:17.986Z,31.10
2018-04-10T18:32:45.420Z,32.90
2018-04-10T18:35:12.833Z,33.73
2018-04-10T18:37:40.269Z,30.07
2018-04-10T18:40:08.460Z,33.17
2018-04-10T18:42:36.666Z,30.93
2018-04-10T18:45:04.110Z,31.83
2018-04-10T18:47:32.312Z,33.37
2018-04-10T18:50:01.037Z,31.07
2018-04-10T18:52:28.473Z,30.60
2018-04-10T18:54:56.665Z,30.80
2018-04-10T18:57:24.084Z,31.73
2018-04-10T18:59:51.503Z,32.60
2018-04-10T19:02:18.934Z,30.57
2018-04-10T19:04:46.351Z,31.60
2018-04-10T19:07:13.772Z,31.03
2018-04-10T19:09:41.214Z,29.60
2018-04-10T19:12:08.620Z,32.23
2018-04-10T19:14:36.819Z,32.42
2018-04-10T19:17:05.031Z,30.40
2018-04-10T19:19:32.577Z,31.47
2018-04-10T19:22:00.040Z,30.43
2018-04-10T19:24:29.173Z,31.70
2018-04-10T19:26:56.624Z,32.10
2018-04-10T19:29:24.072Z,31.47
2018-04-10T19:31:51.580Z,29.90
2018-04-10T19:34:19.020Z,29.93
2018-04-10T19:36:47.224Z,28.93
2018-04-10T19:39:14.640Z,30.80
2018-04-10T19:41:42.074Z,29.27
2018-04-10T19:44:09.537Z,30.27
2018-04-10T19:46:37.749Z,29.30
2018-04-10T19:49:05.188Z,30.20
2018-04-10T19:51:33.364Z,26.57
2018-04-10T19:54:00.780Z,28.90
2018-04-10T19:56:29.148Z,27.40
2018-04-10T19:58:56.619Z,30.77
2018-04-10T20:01:24.060Z,28.80
2018-04-10T20:03:52.264Z,31.30
2018-04-10T20:06:19.692Z,29.57
2018-04-10T20:08:47.125Z,27.50
2018-04-10T20:11:14.634Z,30.57
2018-04-10T20:13:42.081Z,29.40
2018-04-10T20:16:09.520Z,29.60
2018-04-10T20:18:36.955Z,30.37
2018-04-10T20:21:05.173Z,29.00
2018-04-10T20:23:32.605Z,29.37
2018-04-10T20:26:01.715Z,29.20
2018-04-10T20:28:30.339Z,27.13
2018-04-10T20:30:59.440Z,28.43
2018-04-10T20:33:26.864Z,27.93
2018-04-10T20:35:54.304Z,26.90
2018-04-10T20:38:21.761Z,26.67
2018-04-10T20:40:49.218Z,27.60
2018-04-10T20:43:16.690Z,28.77
2018-04-10T20:45:44.142Z,28.73
2018-04-10T20:48:12.360Z,25.63
2018-04-10T20:50:39.771Z,28.83
2018-04-10T20:53:07.212Z,29.33
2018-04-10T20:55:34.652Z,27.27
2018-04-10T20:58:02.884Z,27.70
2018-04-10T21:00:30.313Z,25.63
2018-04-10T21:02:57.733Z,29.50
2018-04-10T21:05:25.200Z,24.90
2018-04-10T21:07:52.576Z,29.37
2018-04-10T21:10:20.772Z,25.90
2018-04-10T21:12:48.983Z,26.87
2018-04-10T21:15:16.415Z,27.80
2018-04-10T21:17:44.620Z,27.43
2018-04-10T21:20:12.813Z,26.87
2018-04-10T21:22:40.995Z,28.60
2018-04-10T21:25:08.442Z,28.17
2018-04-10T21:27:35.890Z,27.47
2018-04-10T21:30:03.366Z,26.47
2018-04-10T21:32:30.795Z,27.20
2018-04-10T21:34:58.209Z,26.57
2018-04-10T21:37:25.637Z,27.80
2018-04-10T21:39:53.064Z,26.50
2018-04-10T21:42:21.266Z,26.50
2018-04-10T21:44:48.679Z,27.10
2018-04-10T21:47:16.103Z,26.27
2018-04-10T21:49:43.541Z,26.40
2018-04-10T21:52:10.970Z,24.47
2018-04-10T21:54:38.385Z,26.37
2018-04-10T21:57:06.567Z,26.50
2018-04-10T21:59:33.999Z,22.20
2018-04-10T22:02:01.540Z,25.80
2018-04-10T22:04:28.965Z,25.03
2018-04-10T22:06:56.392Z,25.60
2018-04-10T22:09:23.826Z,21.57
2018-04-10T22:11:51.300Z,26.03
2018-04-10T22:14:19.502Z,24.83
2018-04-10T22:16:46.967Z,25.30
2018-04-10T22:19:14.469Z,24.80
2018-04-10T22:21:41.907Z,24.53
2018-04-10T22:24:09.334Z,23.50
2018-04-10T22:26:36.832Z,22.27
2018-04-10T22:29:04.282Z,24.30
2018-04-10T22:31:31.700Z,24.57
2018-04-10T22:33:59.104Z,23.87
2018-04-10T22:36:27.289Z,23.57
2018-04-10T22:38:55.457Z,24.30
2018-04-10T22:41:23.662Z,20.03
2018-04-10T22:43:51.856Z,25.57
2018-04-10T22:46:19.317Z,25.13
2018-04-10T22:48:46.740Z,25.90
2018-04-10T22:51:14.156Z,24.50
2018-04-10T22:53:41.611Z,24.33
2018-04-10T22:56:09.810Z,23.50
2018-04-10T22:58:38.032Z,23.57
2018-04-10T23:01:05.479Z,24.17
2018-04-10T23:03:32.978Z,23.83
2018-04-10T23:06:02.043Z,25.30
2018-04-10T23:08:29.472Z,23.10
2018-04-10T23:10:56.904Z,24.93
2018-04-10T23:13:24.358Z,24.03
2018-04-10T23:15:52.549Z,24.50
2018-04-10T23:18:20.737Z,23.67
2018-04-10T23:20:48.920Z,25.47
2018-04-10T23:23:17.113Z,25.20
2018-04-10T23:25:45.325Z,23.40
2018-04-10T23:28:12.769Z,23.90
2018-04-10T23:30:40.974Z,23.77
2018-04-10T23:33:08.411Z,22.80
2018-04-10T23:35:35.840Z,22.83
2018-04-10T23:38:03.276Z,24.03
2018-04-10T23:40:30.721Z,23.67
2018-04-10T23:42:58.912Z,23.60
2018-04-10T23:45:27.108Z,23.17
2018-04-10T23:47:55.309Z,23.07
2018-04-10T23:50:22.715Z,22.80
2018-04-10T23:52:50.129Z,22.80
2018-04-10T23:55:18.324Z,23.03
2018-04-10T23:57:45.800Z,22.90
